Time;durP1;ratioP1;P1;durP2;ratioP2;P2;SDS_P1;SDS_P2;PMS_P1;PMS_P2;Temp;Humidity;BMP_temperature;BMP_pressure;BME280_temperature;BME280_humidity;BME280_pressure;Samples;Min_cycle;Max_cycle;Signal;HPM_P1;HPM_P2
2022/12/30 00:00:58;;;;;;;4.82;1.95;;;;;;;;;;4858554;29;20045;-59
2022/12/30 00:03:23;;;;;;;2.97;1.60;;;;;;;;;;4856016;29;20050;-59
2022/12/30 00:05:48;;;;;;;2.95;1.70;;;;;;;;;;4851770;29;20112;-58
2022/12/30 00:10:57;;;;;;;2.78;1.60;;;;;;;;;;4856474;29;20028;-58
2022/12/30 00:33:09;;;;;;;4.03;2.08;;;;;;;;;;4869662;29;20125;-61
2022/12/30 00:35:38;;;;;;;5.32;2.25;;;;;;;;;;4851554;29;20038;-59
2022/12/30 00:38:03;;;;;;;3.30;2.10;;;;;;;;;;4846797;29;20108;-59
2022/12/30 00:40:28;;;;;;;4.95;2.50;;;;;;;;;;4853427;29;20029;-58
2022/12/30 00:43:09;;;;;;;6.07;2.67;;;;;;;;;;4855652;29;20391;-59
2022/12/30 00:45:38;;;;;;;4.45;2.17;;;;;;;;;;4850834;29;20663;-59
2022/12/30 00:56:16;;;;;;;8.88;3.50;;;;;;;;;;4854042;29;20065;-58
2022/12/30 00:58:41;;;;;;;6.05;2.83;;;;;;;;;;4855155;29;20109;-58
2022/12/30 01:01:07;;;;;;;10.57;2.85;;;;;;;;;;4883672;29;20052;-58
2022/12/30 01:03:32;;;;;;;5.65;2.60;;;;;;;;;;4851227;29;20029;-59
2022/12/30 01:05:57;;;;;;;7.00;3.17;;;;;;;;;;4854534;29;20378;-58
2022/12/30 01:08:23;;;;;;;7.00;3.08;;;;;;;;;;4880609;29;20097;-58
2022/12/30 01:10:48;;;;;;;5.53;3.22;;;;;;;;;;4851724;29;20034;-58
2022/12/30 01:13:13;;;;;;;9.70;3.90;;;;;;;;;;4849860;29;20037;-58
2022/12/30 01:15:38;;;;;;;8.88;3.47;;;;;;;;;;4853685;29;20651;-58
2022/12/30 01:18:04;;;;;;;8.60;3.80;;;;;;;;;;4880066;29;20037;-59
2022/12/30 01:20:29;;;;;;;6.38;3.28;;;;;;;;;;4855655;29;20038;-59
2022/12/30 01:22:54;;;;;;;3.95;2.25;;;;;;;;;;4854233;29;20041;-59
2022/12/30 01:25:20;;;;;;;3.97;2.20;;;;;;;;;;4852725;29;20551;-58
2022/12/30 01:27:51;;;;;;;5.05;2.58;;;;;;;;;;4851856;29;20041;-59
2022/12/30 01:30:16;;;;;;;4.28;2.42;;;;;;;;;;4851754;29;20061;-58
2022/12/30 01:32:41;;;;;;;5.50;2.42;;;;;;;;;;4856091;29;20190;-58
2022/12/30 01:35:07;;;;;;;5.88;2.60;;;;;;;;;;4853553;29;20029;-59
2022/12/30 01:37:33;;;;;;;10.45;3.67;;;;;;;;;;4853222;29;20049;-58
2022/12/30 01:39:58;;;;;;;9.23;5.00;;;;;;;;;;4856289;29;20039;-59
2022/12/30 01:42:25;;;;;;;11.07;4.90;;;;;;;;;;4855063;29;20446;-58
2022/12/30 01:44:56;;;;;;;11.02;4.20;;;;;;;;;;4850231;29;20808;-58
2022/12/30 01:47:24;;;;;;;10.75;4.72;;;;;;;;;;4852171;29;20053;-59
2022/12/30 01:49:51;;;;;;;10.77;4.32;;;;;;;;;;4856239;29;20301;-59
2022/12/30 01:52:18;;;;;;;7.65;3.00;;;;;;;;;;4853229;29;20048;-58
2022/12/30 01:54:43;;;;;;;9.55;2.97;;;;;;;;;;4857211;29;20044;-58
2022/12/30 01:57:09;;;;;;;6.65;2.10;;;;;;;;;;4857026;29;20045;-59
2022/12/30 01:59:35;;;;;;;9.82;2.60;;;;;;;;;;4858467;29;20061;-58
2022/12/30 02:02:00;;;;;;;6.10;2.92;;;;;;;;;;4854273;29;20029;-59
2022/12/30 02:04:28;;;;;;;4.60;2.22;;;;;;;;;;4879753;29;20184;-59
2022/12/30 02:07:03;;;;;;;4.60;2.33;;;;;;;;;;4852550;29;20461;-58
2022/12/30 02:09:30;;;;;;;4.03;2.28;;;;;;;;;;4880875;29;20056;-58
2022/12/30 02:11:57;;;;;;;5.47;2.55;;;;;;;;;;4858083;29;20527;-60
2022/12/30 02:14:23;;;;;;;3.30;1.88;;;;;;;;;;4856451;29;20033;-60
2022/12/30 02:17:01;;;;;;;3.35;1.77;;;;;;;;;;4857375;29;20037;-59
2022/12/30 02:19:58;;;;;;;5.65;2.00;;;;;;;;;;4855979;29;20030;-59
2022/12/30 02:22:29;;;;;;;4.93;1.90;;;;;;;;;;4873526;29;20044;-58
2022/12/30 02:25:20;;;;;;;4.60;1.52;;;;;;;;;;4853860;29;20038;-58
2022/12/30 02:27:48;;;;;;;2.40;1.80;;;;;;;;;;4860822;29;20051;-59
2022/12/30 02:30:18;;;;;;;7.03;2.33;;;;;;;;;;4853872;29;20449;-58
2022/12/30 02:32:43;;;;;;;6.88;2.50;;;;;;;;;;4883542;29;20041;-58
2022/12/30 02:35:23;;;;;;;6.45;2.85;;;;;;;;;;4856741;29;20741;-58
2022/12/30 02:38:07;;;;;;;6.47;2.42;;;;;;;;;;4857684;29;20465;-60
2022/12/30 02:44:36;;;;;;;8.68;2.85;;;;;;;;;;4855081;29;20040;-59
2022/12/30 02:46:08;;;;;;;8.57;3.63;;;;;;;;;;4858078;29;20559;-58
2022/12/30 02:48:36;;;;;;;9.73;3.72;;;;;;;;;;4853318;29;20052;-58
2022/12/30 02:53:46;;;;;;;8.85;3.70;;;;;;;;;;4857201;29;20500;-58
2022/12/30 02:56:14;;;;;;;6.25;3.13;;;;;;;;;;4856214;29;20069;-58
2022/12/30 02:58:43;;;;;;;13.75;5.70;;;;;;;;;;4860286;29;20089;-59
2022/12/30 03:03:57;;;;;;;7.07;3.60;;;;;;;;;;4854660;29;20085;-59
2022/12/30 03:06:25;;;;;;;7.22;2.90;;;;;;;;;;4859277;29;20045;-59
2022/12/30 03:09:08;;;;;;;7.18;2.30;;;;;;;;;;4858669;29;20484;-58
2022/12/30 03:11:50;;;;;;;4.10;1.90;;;;;;;;;;4857002;29;20030;-60
2022/12/30 03:14:18;;;;;;;4.50;2.10;;;;;;;;;;4856258;29;20033;-64
2022/12/30 03:16:47;;;;;;;5.43;2.00;;;;;;;;;;4854384;29;20819;-58
2022/12/30 03:19:15;;;;;;;7.57;3.17;;;;;;;;;;4857747;29;20076;-61
2022/12/30 03:21:41;;;;;;;5.40;3.08;;;;;;;;;;4853390;29;20078;-58
2022/12/30 03:27:04;;;;;;;4.10;2.38;;;;;;;;;;4858606;29;20037;-59
2022/12/30 03:29:40;;;;;;;3.97;2.15;;;;;;;;;;4857961;29;20041;-58
2022/12/30 03:32:08;;;;;;;6.05;2.60;;;;;;;;;;4852711;29;20568;-59
2022/12/30 03:34:33;;;;;;;4.97;2.55;;;;;;;;;;4856090;29;20401;-58
2022/12/30 03:37:08;;;;;;;6.68;2.65;;;;;;;;;;4858066;29;20755;-59
2022/12/30 03:39:36;;;;;;;9.13;3.38;;;;;;;;;;4856916;29;20038;-59
2022/12/30 03:42:03;;;;;;;5.20;3.13;;;;;;;;;;4862202;29;20109;-59
2022/12/30 03:44:29;;;;;;;7.30;2.67;;;;;;;;;;4856675;29;20029;-59
2022/12/30 03:46:54;;;;;;;5.00;2.90;;;;;;;;;;4853522;29;20048;-59
2022/12/30 03:49:19;;;;;;;4.85;2.47;;;;;;;;;;4855765;29;20030;-59
2022/12/30 03:51:45;;;;;;;5.28;2.67;;;;;;;;;;4852728;29;20046;-59
2022/12/30 03:54:10;;;;;;;5.28;2.60;;;;;;;;;;4853590;29;20538;-58
2022/12/30 03:56:35;;;;;;;5.22;2.55;;;;;;;;;;4855174;29;20037;-59
2022/12/30 03:59:01;;;;;;;5.60;2.40;;;;;;;;;;4853032;29;20045;-58
2022/12/30 04:01:26;;;;;;;3.88;2.47;;;;;;;;;;4883816;29;20034;-59
2022/12/30 04:03:51;;;;;;;5.35;2.30;;;;;;;;;;4853701;29;20033;-59
2022/12/30 04:06:17;;;;;;;4.18;2.53;;;;;;;;;;4879172;29;20073;-58
2022/12/30 04:08:42;;;;;;;4.45;2.42;;;;;;;;;;4855233;29;20033;-59
2022/12/30 04:11:07;;;;;;;8.75;3.83;;;;;;;;;;4853158;29;20065;-58
2022/12/30 04:13:32;;;;;;;8.45;4.38;;;;;;;;;;4854514;29;20468;-59
2022/12/30 04:15:58;;;;;;;10.07;4.03;;;;;;;;;;4857241;29;20112;-59
2022/12/30 04:18:23;;;;;;;8.07;3.80;;;;;;;;;;4856188;29;20565;-59
2022/12/30 04:20:50;;;;;;;8.18;4.32;;;;;;;;;;4853615;29;20059;-59
2022/12/30 04:23:16;;;;;;;6.47;4.13;;;;;;;;;;4859148;29;20105;-58
2022/12/30 04:25:41;;;;;;;5.60;3.13;;;;;;;;;;4856710;29;20073;-58
2022/12/30 04:28:09;;;;;;;5.45;3.33;;;;;;;;;;4855550;29;20386;-58
2022/12/30 04:30:38;;;;;;;7.47;3.20;;;;;;;;;;4853273;29;20098;-59
2022/12/30 04:33:03;;;;;;;6.82;2.97;;;;;;;;;;4847668;29;20773;-58
2022/12/30 04:35:29;;;;;;;8.48;3.03;;;;;;;;;;4881407;29;20094;-59
2022/12/30 04:37:54;;;;;;;9.18;3.08;;;;;;;;;;4849679;29;20037;-58
2022/12/30 04:40:19;;;;;;;7.88;2.92;;;;;;;;;;4853898;29;20033;-58
2022/12/30 04:42:45;;;;;;;6.43;2.70;;;;;;;;;;4852928;29;20049;-62
2022/12/30 04:45:10;;;;;;;6.43;2.80;;;;;;;;;;4852764;29;20495;-58
2022/12/30 04:47:35;;;;;;;4.25;2.60;;;;;;;;;;4852718;29;20041;-59
2022/12/30 04:50:01;;;;;;;5.20;2.90;;;;;;;;;;4851588;29;20060;-59
2022/12/30 04:52:26;;;;;;;6.38;2.97;;;;;;;;;;4855098;29;20092;-58
2022/12/30 04:54:52;;;;;;;4.85;2.60;;;;;;;;;;4855707;29;20044;-59
2022/12/30 04:57:17;;;;;;;5.72;2.70;;;;;;;;;;4856105;29;20432;-59
2022/12/30 04:59:42;;;;;;;5.60;2.75;;;;;;;;;;4850498;29;20041;-58
2022/12/30 05:02:08;;;;;;;4.07;2.30;;;;;;;;;;4849898;29;20049;-58
2022/12/30 05:04:33;;;;;;;5.38;2.50;;;;;;;;;;4853387;29;20056;-59
2022/12/30 05:06:58;;;;;;;2.70;2.03;;;;;;;;;;4853389;29;20037;-59
2022/12/30 05:09:23;;;;;;;4.78;2.17;;;;;;;;;;4856170;29;20477;-59
2022/12/30 05:11:49;;;;;;;3.80;2.20;;;;;;;;;;4855470;29;20112;-58
2022/12/30 05:14:14;;;;;;;6.38;2.88;;;;;;;;;;4866404;29;20098;-60
2022/12/30 05:16:39;;;;;;;3.78;2.60;;;;;;;;;;4853367;29;20048;-59
2022/12/30 05:19:05;;;;;;;5.97;3.20;;;;;;;;;;4853910;29;20063;-59
2022/12/30 05:21:30;;;;;;;5.72;3.05;;;;;;;;;;4852701;29;20524;-59
2022/12/30 05:26:39;;;;;;;5.25;2.75;;;;;;;;;;4853596;29;20388;-58
2022/12/30 05:29:04;;;;;;;4.65;2.97;;;;;;;;;;4853507;29;20489;-59
2022/12/30 05:31:30;;;;;;;4.82;2.78;;;;;;;;;;4852480;29;20037;-60
2022/12/30 05:33:55;;;;;;;4.70;2.85;;;;;;;;;;4853583;29;20041;-58
2022/12/30 05:36:20;;;;;;;7.07;3.00;;;;;;;;;;4852784;29;20093;-58
2022/12/30 05:38:46;;;;;;;11.50;3.30;;;;;;;;;;4853559;29;20037;-58
2022/12/30 05:41:12;;;;;;;7.90;3.10;;;;;;;;;;4878328;29;20039;-60
2022/12/30 05:43:37;;;;;;;5.05;2.78;;;;;;;;;;4853819;29;20045;-59
2022/12/30 05:46:02;;;;;;;5.60;3.33;;;;;;;;;;4851627;29;20030;-59
2022/12/30 05:48:28;;;;;;;5.63;3.00;;;;;;;;;;4857738;29;20051;-59
2022/12/30 05:50:53;;;;;;;8.13;3.70;;;;;;;;;;4858102;29;20030;-58
2022/12/30 05:53:18;;;;;;;6.03;2.90;;;;;;;;;;4861246;29;20043;-59
2022/12/30 05:55:44;;;;;;;5.72;3.58;;;;;;;;;;4859367;29;20038;-59
2022/12/30 05:58:09;;;;;;;5.72;3.60;;;;;;;;;;4882726;29;20044;-59
2022/12/30 06:00:35;;;;;;;8.88;3.90;;;;;;;;;;4859289;29;20037;-59
2022/12/30 06:03:00;;;;;;;8.02;3.97;;;;;;;;;;4856754;29;20030;-58
2022/12/30 06:05:25;;;;;;;6.57;4.10;;;;;;;;;;4855394;29;20048;-59
2022/12/30 06:07:50;;;;;;;5.07;3.78;;;;;;;;;;4882430;29;20041;-59
2022/12/30 06:10:16;;;;;;;7.05;4.32;;;;;;;;;;4851550;29;20127;-58
2022/12/30 06:12:41;;;;;;;8.30;4.18;;;;;;;;;;4854383;29;20560;-58
2022/12/30 06:15:07;;;;;;;7.35;4.28;;;;;;;;;;4855940;29;20120;-58
2022/12/30 06:17:32;;;;;;;7.28;3.83;;;;;;;;;;4856609;29;20139;-58
2022/12/30 06:20:00;;;;;;;6.65;3.95;;;;;;;;;;4851776;29;20421;-58
2022/12/30 06:22:25;;;;;;;7.13;2.83;;;;;;;;;;4862623;29;20521;-58
2022/12/30 06:24:50;;;;;;;6.00;2.80;;;;;;;;;;4884930;29;20101;-58
2022/12/30 06:27:16;;;;;;;6.75;3.33;;;;;;;;;;4856354;29;20476;-58
2022/12/30 06:29:41;;;;;;;8.35;4.10;;;;;;;;;;4854772;29;20413;-58
2022/12/30 06:32:06;;;;;;;6.25;3.90;;;;;;;;;;4854242;29;20044;-58
2022/12/30 06:34:32;;;;;;;7.28;4.45;;;;;;;;;;4857419;29;20037;-58
2022/12/30 06:36:57;;;;;;;10.23;4.45;;;;;;;;;;4885378;29;20065;-58
2022/12/30 06:39:22;;;;;;;7.07;3.85;;;;;;;;;;4856013;29;20666;-58
2022/12/30 06:41:48;;;;;;;6.45;3.67;;;;;;;;;;4857908;29;20097;-58
2022/12/30 06:44:13;;;;;;;8.23;3.97;;;;;;;;;;4856813;29;20044;-57
2022/12/30 06:46:38;;;;;;;6.78;3.78;;;;;;;;;;4857733;29;20040;-58
2022/12/30 06:49:03;;;;;;;7.30;3.63;;;;;;;;;;4857665;29;20037;-58
2022/12/30 06:51:29;;;;;;;9.13;4.63;;;;;;;;;;4855012;29;20128;-58
2022/12/30 06:53:54;;;;;;;7.80;4.15;;;;;;;;;;4880777;29;20042;-58
2022/12/30 06:56:19;;;;;;;6.38;4.07;;;;;;;;;;4857517;29;20654;-58
2022/12/30 06:58:45;;;;;;;5.90;4.28;;;;;;;;;;4856275;29;20033;-58
2022/12/30 07:01:10;;;;;;;11.40;7.65;;;;;;;;;;4860470;29;20077;-58
2022/12/30 07:03:35;;;;;;;10.65;6.18;;;;;;;;;;4867713;29;20065;-58
2022/12/30 07:06:00;;;;;;;13.93;5.53;;;;;;;;;;4857416;29;20037;-58
2022/12/30 07:08:26;;;;;;;10.55;5.20;;;;;;;;;;4855333;29;20037;-58
2022/12/30 07:10:51;;;;;;;8.88;5.53;;;;;;;;;;4851710;29;20065;-58
2022/12/30 07:13:16;;;;;;;8.85;4.60;;;;;;;;;;4866037;29;20392;-58
2022/12/30 07:15:42;;;;;;;8.18;4.57;;;;;;;;;;4854179;29;20094;-59
2022/12/30 07:18:08;;;;;;;7.82;4.55;;;;;;;;;;4856329;29;20128;-58
2022/12/30 07:20:33;;;;;;;8.27;4.82;;;;;;;;;;4853752;29;20117;-58
2022/12/30 07:22:58;;;;;;;8.07;4.43;;;;;;;;;;4856123;29;20624;-58
2022/12/30 07:25:23;;;;;;;7.30;4.70;;;;;;;;;;4854726;29;20485;-58
2022/12/30 07:27:49;;;;;;;8.40;4.90;;;;;;;;;;4884024;29;20044;-57
2022/12/30 07:30:14;;;;;;;8.77;4.65;;;;;;;;;;4859384;29;20037;-58
2022/12/30 07:32:39;;;;;;;8.70;5.10;;;;;;;;;;4882343;29;20041;-58
2022/12/30 07:35:07;;;;;;;10.15;5.05;;;;;;;;;;4858661;29;20038;-58
2022/12/30 07:37:33;;;;;;;12.05;5.57;;;;;;;;;;4882593;29;20568;-58
2022/12/30 07:39:58;;;;;;;10.35;5.18;;;;;;;;;;4856270;29;20212;-58
2022/12/30 07:42:23;;;;;;;11.90;5.13;;;;;;;;;;4855917;29;20034;-58
2022/12/30 07:44:49;;;;;;;11.27;5.05;;;;;;;;;;4883629;29;20072;-58
2022/12/30 07:47:14;;;;;;;14.13;6.05;;;;;;;;;;4854809;29;20052;-57
2022/12/30 07:49:40;;;;;;;10.68;5.80;;;;;;;;;;4856905;29;20041;-58
2022/12/30 07:52:06;;;;;;;9.77;5.55;;;;;;;;;;4855724;29;20516;-58
2022/12/30 07:54:31;;;;;;;8.98;5.05;;;;;;;;;;4853925;29;20041;-58
2022/12/30 07:56:56;;;;;;;10.13;4.95;;;;;;;;;;4854057;29;20432;-58
2022/12/30 07:59:22;;;;;;;8.93;5.10;;;;;;;;;;4859704;29;20030;-58
2022/12/30 08:01:50;;;;;;;7.50;4.75;;;;;;;;;;4878784;29;20042;-58
2022/12/30 08:04:15;;;;;;;11.95;4.82;;;;;;;;;;4847262;29;20090;-58
2022/12/30 08:06:40;;;;;;;9.93;4.70;;;;;;;;;;4850828;29;20567;-56
2022/12/30 08:09:06;;;;;;;10.35;5.63;;;;;;;;;;4874696;29;20719;-58
2022/12/30 08:11:32;;;;;;;9.10;5.22;;;;;;;;;;4847253;29;20061;-58
2022/12/30 08:13:57;;;;;;;9.75;5.25;;;;;;;;;;4875055;29;20433;-58
2022/12/30 08:16:22;;;;;;;11.90;7.15;;;;;;;;;;4850057;29;20125;-58
2022/12/30 08:18:48;;;;;;;20.27;10.07;;;;;;;;;;4876563;29;20049;-58
2022/12/30 08:21:14;;;;;;;31.58;13.00;;;;;;;;;;4844961;29;20038;-58
2022/12/30 08:23:42;;;;;;;51.73;18.83;;;;;;;;;;4876869;29;20098;-58
2022/12/30 08:26:08;;;;;;;40.92;16.02;;;;;;;;;;4863405;29;20461;-58
2022/12/30 08:28:34;;;;;;;47.03;16.80;;;;;;;;;;4851976;29;20073;-57
2022/12/30 08:31:04;;;;;;;33.28;13.70;;;;;;;;;;4849043;29;20068;-58
2022/12/30 08:33:30;;;;;;;20.88;11.23;;;;;;;;;;4851057;29;20061;-57
2022/12/30 08:35:59;;;;;;;27.87;13.03;;;;;;;;;;4868140;29;20065;-57
2022/12/30 08:38:24;;;;;;;30.45;13.15;;;;;;;;;;4857640;29;20029;-58
2022/12/30 08:40:50;;;;;;;26.73;13.32;;;;;;;;;;4850952;29;20101;-58
2022/12/30 08:43:18;;;;;;;28.83;12.15;;;;;;;;;;4882404;29;20037;-58
2022/12/30 08:45:44;;;;;;;24.92;12.90;;;;;;;;;;4848589;29;20029;-58
2022/12/30 08:48:09;;;;;;;26.02;12.90;;;;;;;;;;4844972;29;20042;-58
2022/12/30 08:50:34;;;;;;;22.60;11.48;;;;;;;;;;4862438;29;20118;-56
2022/12/30 08:52:59;;;;;;;19.88;10.13;;;;;;;;;;4876178;29;20055;-58
2022/12/30 08:55:27;;;;;;;20.58;9.63;;;;;;;;;;4846412;29;20045;-58
2022/12/30 08:57:52;;;;;;;;;;;;;;;;;;4850277;29;20037;-58
2022/12/30 09:00:17;;;;;;;18.07;11.30;;;;;;;;;;4844646;29;19912;-58
2022/12/30 09:02:43;;;;;;;26.60;13.10;;;;;;;;;;4846562;29;20044;-58
2022/12/30 09:05:08;;;;;;;29.95;15.32;;;;;;;;;;4874665;29;20052;-56
2022/12/30 09:07:33;;;;;;;27.48;14.65;;;;;;;;;;4880166;29;20029;-58
2022/12/30 09:09:59;;;;;;;27.08;15.32;;;;;;;;;;4852612;29;20137;-58
2022/12/30 09:12:24;;;;;;;30.77;16.20;;;;;;;;;;4850835;29;20033;-58
2022/12/30 09:14:49;;;;;;;28.35;17.10;;;;;;;;;;4849501;29;20124;-58
2022/12/30 09:17:15;;;;;;;31.08;18.48;;;;;;;;;;4850041;29;20133;-58
2022/12/30 09:19:40;;;;;;;27.45;15.52;;;;;;;;;;4850614;29;20056;-58
2022/12/30 09:22:05;;;;;;;25.27;15.10;;;;;;;;;;4854999;29;20403;-58
2022/12/30 09:24:30;;;;;;;26.77;16.23;;;;;;;;;;4853356;29;20041;-58
2022/12/30 09:26:56;;;;;;;28.13;15.65;;;;;;;;;;4850558;29;20148;-58
2022/12/30 09:29:21;;;;;;;25.50;15.02;;;;;;;;;;4849258;29;20038;-59
2022/12/30 09:31:46;;;;;;;20.50;11.68;;;;;;;;;;4882076;29;20057;-58
2022/12/30 09:34:12;;;;;;;14.48;9.75;;;;;;;;;;4850371;29;20029;-58
2022/12/30 09:36:37;;;;;;;11.48;7.38;;;;;;;;;;4851943;29;20512;-58
2022/12/30 09:39:02;;;;;;;12.00;5.85;;;;;;;;;;4848686;29;20067;-58
2022/12/30 09:44:23;;;;;;;4.70;2.95;;;;;;;;;;4855267;29;20030;-58
2022/12/30 09:46:51;;;;;;;4.13;2.83;;;;;;;;;;4855259;29;20042;-58
2022/12/30 09:49:35;;;;;;;5.65;3.38;;;;;;;;;;4852632;29;20130;-59
2022/12/30 09:52:10;;;;;;;5.70;2.05;;;;;;;;;;4851693;29;20077;-59
2022/12/30 09:54:37;;;;;;;3.00;1.70;;;;;;;;;;4847097;29;20125;-59
2022/12/30 09:59:51;;;;;;;4.57;2.00;;;;;;;;;;4849405;29;20485;-59
2022/12/30 10:02:27;;;;;;;4.65;1.90;;;;;;;;;;4848328;29;20122;-57
2022/12/30 10:04:54;;;;;;;4.38;1.90;;;;;;;;;;4878748;29;20752;-57
2022/12/30 10:07:41;;;;;;;2.55;1.58;;;;;;;;;;4849833;29;20038;-57
2022/12/30 10:10:19;;;;;;;3.42;1.73;;;;;;;;;;4847886;29;20073;-54
2022/12/30 10:12:47;;;;;;;4.43;1.65;;;;;;;;;;4848162;29;20035;-59
2022/12/30 10:15:16;;;;;;;3.13;1.73;;;;;;;;;;4849614;29;20044;-57
2022/12/30 10:17:53;;;;;;;2.35;1.70;;;;;;;;;;4849277;29;20037;-55
2022/12/30 10:20:19;;;;;;;;;;;;;;;;;;4847910;29;20044;-57
2022/12/30 10:22:44;;;;;;;3.50;1.80;;;;;;;;;;4847389;29;19927;-58
2022/12/30 10:25:22;;;;;;;2.42;1.60;;;;;;;;;;4877067;29;20161;-58
2022/12/30 10:27:49;;;;;;;2.75;1.52;;;;;;;;;;4877768;29;20739;-58
2022/12/30 10:30:16;;;;;;;3.63;1.90;;;;;;;;;;4848663;29;20097;-57
2022/12/30 10:32:41;;;;;;;;;;;;;;;;;;4853818;29;20037;-58
2022/12/30 10:35:17;;;;;;;2.83;1.60;;;;;;;;;;4852843;29;19964;-58
2022/12/30 10:37:42;;;;;;;5.60;1.63;;;;;;;;;;4851628;29;21082;-58
2022/12/30 10:40:17;;;;;;;3.10;1.40;;;;;;;;;;4851349;29;20048;-58
2022/12/30 10:42:52;;;;;;;2.38;1.52;;;;;;;;;;4853248;29;20045;-57
2022/12/30 10:45:27;;;;;;;2.83;1.63;;;;;;;;;;4878662;29;20504;-57
2022/12/30 10:48:11;;;;;;;5.05;1.77;;;;;;;;;;4850707;29;20033;-58
2022/12/30 10:50:55;;;;;;;3.83;1.88;;;;;;;;;;4880105;29;20041;-59
2022/12/30 10:53:22;;;;;;;4.07;1.60;;;;;;;;;;4850232;29;20124;-59
2022/12/30 10:55:55;;;;;;;3.70;1.83;;;;;;;;;;4852168;29;20049;-59
2022/12/30 10:58:26;;;;;;;3.13;1.45;;;;;;;;;;4849628;29;20047;-59
2022/12/30 11:00:52;;;;;;;2.35;1.50;;;;;;;;;;4847206;29;20033;-58
2022/12/30 11:03:30;;;;;;;4.03;1.63;;;;;;;;;;4848960;29;20037;-58
2022/12/30 11:05:56;;;;;;;3.83;1.80;;;;;;;;;;4880837;29;20044;-58
2022/12/30 11:08:25;;;;;;;2.65;1.80;;;;;;;;;;4849725;29;20033;-59
2022/12/30 11:11:00;;;;;;;4.43;1.50;;;;;;;;;;4850025;29;20481;-58
2022/12/30 11:16:10;;;;;;;2.63;1.73;;;;;;;;;;4847192;29;20038;-59
2022/12/30 11:18:35;;;;;;;3.10;1.60;;;;;;;;;;4847415;29;20053;-58
2022/12/30 11:21:01;;;;;;;3.72;1.60;;;;;;;;;;4850986;29;20044;-59
2022/12/30 11:23:34;;;;;;;2.25;1.60;;;;;;;;;;4848449;29;20037;-58
2022/12/30 11:26:00;;;;;;;3.85;2.00;;;;;;;;;;4847759;29;20177;-59
2022/12/30 11:28:32;;;;;;;2.80;1.50;;;;;;;;;;4847469;29;20540;-58
2022/12/30 11:30:57;;;;;;;4.05;1.60;;;;;;;;;;4851063;29;20033;-58
2022/12/30 11:33:58;;;;;;;3.65;1.70;;;;;;;;;;4850103;29;20918;-59
2022/12/30 11:36:27;;;;;;;3.55;1.48;;;;;;;;;;4883690;29;20067;-59
2022/12/30 11:38:52;;;;;;;2.78;1.60;;;;;;;;;;4857397;29;20493;-59
2022/12/30 11:41:17;;;;;;;2.25;1.42;;;;;;;;;;4849950;29;20035;-59
2022/12/30 11:43:44;;;;;;;4.30;1.70;;;;;;;;;;4849687;29;20536;-60
2022/12/30 11:46:13;;;;;;;3.53;1.80;;;;;;;;;;4849021;29;20089;-59
2022/12/30 11:48:46;;;;;;;6.82;1.70;;;;;;;;;;4850575;29;20523;-59
2022/12/30 11:51:20;;;;;;;2.75;1.60;;;;;;;;;;4849785;29;20051;-59
2022/12/30 11:53:46;;;;;;;3.90;1.65;;;;;;;;;;4849201;29;20075;-59
2022/12/30 11:56:11;;;;;;;6.27;1.63;;;;;;;;;;4850349;29;20129;-59
2022/12/30 11:58:38;;;;;;;2.65;1.65;;;;;;;;;;4849791;29;20164;-59
2022/12/30 12:01:08;;;;;;;4.07;1.70;;;;;;;;;;4850339;29;20044;-58
2022/12/30 12:03:46;;;;;;;2.83;1.55;;;;;;;;;;4850110;29;20037;-59
2022/12/30 12:06:11;;;;;;;3.58;1.70;;;;;;;;;;4859354;29;20044;-59
2022/12/30 12:08:45;;;;;;;4.18;1.83;;;;;;;;;;4847977;29;20726;-59
2022/12/30 12:11:20;;;;;;;4.25;1.70;;;;;;;;;;4849295;29;20532;-58
2022/12/30 12:14:04;;;;;;;3.88;1.60;;;;;;;;;;4849763;29;20560;-59
2022/12/30 12:16:42;;;;;;;2.67;1.60;;;;;;;;;;4849485;29;20049;-59
2022/12/30 12:19:13;;;;;;;2.63;1.60;;;;;;;;;;4850564;29;20401;-58
2022/12/30 12:21:40;;;;;;;3.00;1.85;;;;;;;;;;4850245;29;20038;-60
2022/12/30 12:24:05;;;;;;;4.20;1.77;;;;;;;;;;4848195;29;20037;-60
2022/12/30 12:26:34;;;;;;;3.47;1.63;;;;;;;;;;4852016;29;20381;-60
2022/12/30 12:29:00;;;;;;;2.22;1.50;;;;;;;;;;4849958;29;20469;-59
2022/12/30 12:31:25;;;;;;;3.50;1.60;;;;;;;;;;4849423;29;20029;-60
2022/12/30 12:33:56;;;;;;;2.38;1.50;;;;;;;;;;4848916;29;20021;-59
2022/12/30 12:36:27;;;;;;;4.07;1.70;;;;;;;;;;4878504;29;20472;-58
2022/12/30 12:38:53;;;;;;;3.83;1.70;;;;;;;;;;4847736;29;20037;-57
2022/12/30 12:41:24;;;;;;;3.03;1.60;;;;;;;;;;4847802;29;20029;-57
2022/12/30 12:43:49;;;;;;;3.45;2.00;;;;;;;;;;4849589;29;20040;-59
2022/12/30 12:46:30;;;;;;;3.78;1.80;;;;;;;;;;4849977;29;20030;-56
2022/12/30 12:49:14;;;;;;;4.57;2.28;;;;;;;;;;4848247;29;20025;-57
2022/12/30 12:51:45;;;;;;;3.13;1.83;;;;;;;;;;4849282;29;20049;-58
2022/12/30 12:54:13;;;;;;;2.90;1.70;;;;;;;;;;4849353;29;20142;-57
2022/12/30 12:56:48;;;;;;;3.80;1.70;;;;;;;;;;4847793;29;20053;-57
2022/12/30 12:59:25;;;;;;;4.32;1.88;;;;;;;;;;4876659;29;20064;-59
2022/12/30 13:02:01;;;;;;;5.85;3.08;;;;;;;;;;4846429;29;20700;-60
2022/12/30 13:04:40;;;;;;;5.95;2.42;;;;;;;;;;4847543;29;20461;-58
2022/12/30 13:07:09;;;;;;;3.10;1.73;;;;;;;;;;4846937;29;20112;-58
2022/12/30 13:09:56;;;;;;;3.72;1.92;;;;;;;;;;4848895;29;20037;-58
2022/12/30 13:12:24;;;;;;;3.55;1.95;;;;;;;;;;4848971;29;20049;-62
2022/12/30 13:14:57;;;;;;;3.45;1.80;;;;;;;;;;4848186;29;20120;-60
2022/12/30 13:17:30;;;;;;;3.90;2.00;;;;;;;;;;4847996;29;20037;-59
2022/12/30 13:20:08;;;;;;;4.90;2.38;;;;;;;;;;4844377;29;20489;-58
2022/12/30 13:22:37;;;;;;;5.97;2.70;;;;;;;;;;4846319;29;20053;-59
2022/12/30 13:25:04;;;;;;;4.72;2.20;;;;;;;;;;4876991;29;20037;-59
2022/12/30 13:27:31;;;;;;;2.70;1.65;;;;;;;;;;4847358;29;20116;-59
2022/12/30 13:29:58;;;;;;;4.03;1.88;;;;;;;;;;4875072;29;20041;-59
2022/12/30 13:32:24;;;;;;;3.42;1.85;;;;;;;;;;4874606;29;20037;-60
2022/12/30 13:34:53;;;;;;;3.30;1.70;;;;;;;;;;4843514;29;20038;-59
2022/12/30 13:37:25;;;;;;;3.22;1.80;;;;;;;;;;4845215;29;20762;-59
2022/12/30 13:40:14;;;;;;;5.38;2.30;;;;;;;;;;4845117;29;20033;-59
2022/12/30 13:42:54;;;;;;;4.10;2.40;;;;;;;;;;4863375;29;21855;-58
2022/12/30 13:45:22;;;;;;;6.40;3.35;;;;;;;;;;4844412;29;20030;-58
2022/12/30 13:47:47;;;;;;;8.20;4.18;;;;;;;;;;4846065;29;20049;-58
2022/12/30 13:50:13;;;;;;;7.07;3.70;;;;;;;;;;4847572;29;20041;-59
2022/12/30 13:52:43;;;;;;;5.97;2.45;;;;;;;;;;4846917;29;20184;-59
2022/12/30 13:55:15;;;;;;;5.05;2.40;;;;;;;;;;4843793;29;20794;-60
2022/12/30 13:57:47;;;;;;;4.63;2.80;;;;;;;;;;4845528;29;20145;-59
2022/12/30 14:00:18;;;;;;;6.90;4.40;;;;;;;;;;4874609;29;20658;-59
2022/12/30 14:02:47;;;;;;;7.50;4.22;;;;;;;;;;4850270;29;20037;-59
2022/12/30 14:05:35;;;;;;;6.47;3.22;;;;;;;;;;4851091;29;20030;-59
2022/12/30 14:08:01;;;;;;;6.53;3.47;;;;;;;;;;4848309;29;20713;-59
2022/12/30 14:10:40;;;;;;;6.32;3.47;;;;;;;;;;4857175;29;20043;-59
2022/12/30 14:13:14;;;;;;;7.45;4.28;;;;;;;;;;4852065;29;20064;-58
2022/12/30 14:15:42;;;;;;;8.68;4.28;;;;;;;;;;4855086;29;20333;-58
2022/12/30 14:18:07;;;;;;;8.20;4.22;;;;;;;;;;4852752;29;20045;-59
2022/12/30 14:20:33;;;;;;;7.28;4.22;;;;;;;;;;4849683;29;20044;-59
2022/12/30 14:23:05;;;;;;;4.55;2.10;;;;;;;;;;4848179;29;20090;-59
2022/12/30 14:25:30;;;;;;;1.85;1.48;;;;;;;;;;4850750;29;20036;-58
2022/12/30 14:28:01;;;;;;;2.72;1.67;;;;;;;;;;4848938;29;20041;-59
2022/12/30 14:30:46;;;;;;;6.15;1.95;;;;;;;;;;4850765;29;20033;-59
2022/12/30 14:33:14;;;;;;;4.85;2.42;;;;;;;;;;4851739;29;20033;-59
2022/12/30 14:35:49;;;;;;;4.75;2.00;;;;;;;;;;4848732;29;20060;-59
2022/12/30 14:38:23;;;;;;;5.07;2.15;;;;;;;;;;4848546;29;20044;-59
2022/12/30 14:41:04;;;;;;;3.85;1.70;;;;;;;;;;4852759;29;20042;-59
2022/12/30 14:43:30;;;;;;;2.45;1.70;;;;;;;;;;4849546;29;20464;-59
2022/12/30 14:46:14;;;;;;;1.65;1.40;;;;;;;;;;4850193;29;20099;-59
2022/12/30 14:48:58;;;;;;;3.35;1.60;;;;;;;;;;4849649;29;20056;-59
2022/12/30 14:51:24;;;;;;;1.77;1.50;;;;;;;;;;4878598;29;20144;-59
2022/12/30 14:53:49;;;;;;;3.28;1.60;;;;;;;;;;4850535;29;20112;-60
2022/12/30 14:56:18;;;;;;;3.45;1.73;;;;;;;;;;4850410;29;20038;-59
2022/12/30 14:58:44;;;;;;;3.08;1.75;;;;;;;;;;4848441;29;20173;-60
2022/12/30 15:01:11;;;;;;;3.38;1.80;;;;;;;;;;4879185;29;20682;-59
2022/12/30 15:03:36;;;;;;;3.83;2.10;;;;;;;;;;4848092;29;20748;-59
2022/12/30 15:06:01;;;;;;;6.00;2.45;;;;;;;;;;4851350;29;20481;-59
2022/12/30 15:08:32;;;;;;;4.53;2.28;;;;;;;;;;4878228;29;20050;-58
2022/12/30 15:11:04;;;;;;;4.22;2.42;;;;;;;;;;4849982;29;20041;-59
2022/12/30 15:13:35;;;;;;;5.18;2.75;;;;;;;;;;4848843;29;20034;-58
2022/12/30 15:16:05;;;;;;;10.18;3.13;;;;;;;;;;4851025;29;20155;-59
2022/12/30 15:18:32;;;;;;;5.90;2.88;;;;;;;;;;4849886;29;20730;-58
2022/12/30 15:20:58;;;;;;;6.00;3.00;;;;;;;;;;4850231;29;20450;-59
2022/12/30 15:23:24;;;;;;;7.07;2.65;;;;;;;;;;4848880;29;20047;-58
2022/12/30 15:25:57;;;;;;;5.55;2.65;;;;;;;;;;4878326;29;20641;-58
2022/12/30 15:28:23;;;;;;;6.38;2.80;;;;;;;;;;4851124;29;20045;-59
2022/12/30 15:30:49;;;;;;;7.63;3.85;;;;;;;;;;4849755;29;20033;-59
2022/12/30 15:33:14;;;;;;;7.72;3.40;;;;;;;;;;4850465;29;20101;-59
2022/12/30 15:35:39;;;;;;;7.22;4.18;;;;;;;;;;4877493;29;20029;-59
2022/12/30 15:38:09;;;;;;;5.75;3.10;;;;;;;;;;4850131;29;20038;-59
2022/12/30 15:40:35;;;;;;;10.13;3.33;;;;;;;;;;4878151;29;20044;-59